Yellow Mule RAWS (NWS)

Jump to table bottom
Date/Time Wind Direction Wind Speed knots Wind Gust knots RH % Accumulated Precip Inches Air Temp Fahrenheit
2022-05-19 05:04 W 17 28 92 3.49 25
2022-05-19 04:04 SSW 19 33 94 3.49 31
2022-05-19 03:04 SSW 23 35 90 3.49 33
2022-05-19 02:04 SW 19 30 89 3.49 34
2022-05-19 01:04 SSW 10 25 69 3.49 38
2022-05-19 00:04 SSW 12 28 65 3.49 39
2022-05-18 23:04 S 17 29 65 3.49 39
2022-05-18 22:04 S 14 30 72 3.49 38
2022-05-18 21:04 SSW 21 30 82 3.49 37
2022-05-18 20:04 SSW 19 30 97 3.48 33
2022-05-18 19:04 SSW 21 37 75 3.45 37
2022-05-18 18:04 SSW 15 36 53 3.45 41
2022-05-18 17:04 SSW 24 37 57 3.45 39
2022-05-18 16:04 S 17 40 50 3.45 42
2022-05-18 15:04 SSE 17 37 34 3.45 48
2022-05-18 14:04 SSW 10 30 28 3.45 46
2022-05-18 13:04 S 17 25 25 3.45 47
2022-05-18 12:04 SSW 12 25 24 3.45 45
2022-05-18 11:04 SSW 13 23 24 3.45 43
2022-05-18 10:04 SSW 12 20 32 3.45 43
2022-05-18 09:04 SSW 14 20 48 3.45 36
2022-05-18 08:04 SSW 12 18 54 3.45 35
2022-05-18 07:04 SW 10 14 56 3.45 33
2022-05-18 06:04 SW 8 11 60 3.45 32
2022-05-18 05:04 WSW 8 10 61 3.45 32
2022-05-18 04:04 WSW 9 13 61 3.45 33
2022-05-18 03:04 WSW 10 15 56 3.45 35
2022-05-18 02:04 N 3 10 51 3.45 36
2022-05-18 01:04 W 7 10 48 3.45 38
2022-05-18 00:04 W 10 12 44 3.45 39
2022-05-17 23:04 WSW 8 11 39 3.45 40
2022-05-17 22:04 WSW 7 10 40 3.45 40
2022-05-17 21:04 W 7 12 37 3.45 41
2022-05-17 20:04 WSW 11 17 35 3.45 43
2022-05-17 19:04 SW 10 20 29 3.45 47
2022-05-17 18:04 SSW 16 24 32 3.45 48
2022-05-17 17:04 SW 16 24 34 3.45 47
2022-05-17 16:04 SW 15 26 35 3.45 47
2022-05-17 15:04 SSW 15 22 34 3.45 47
2022-05-17 14:04 S 14 22 38 3.45 46
2022-05-17 13:04 SSW 13 20 35 3.45 45
2022-05-17 12:04 SSW 12 17 51 3.45 43
2022-05-17 11:04 SSW 10 17 55 3.45 45
2022-05-17 10:04 SSW 9 15 64 3.45 43
2022-05-17 09:04 SSW 6 10 81 3.45 40
2022-05-17 08:04 S 5 10 86 3.45 38
2022-05-17 07:04 SW 6 10 83 3.45 36
2022-05-17 06:04 W 6 8 84 3.45 34
2022-05-17 05:04 W 5 7 87 3.45 35
2022-05-17 04:04 WNW 3 6 87 3.45 36